THY9314 LTAJ-LTFO
Flight info
| Callsign | THY9314 |
|---|---|
| Flight time | N/A |
| Altitude | 33000 |
| Route | BUPUN UT142 ASKER UW701 EZS UW88 ERN UT166 PIXAP UW88 TBN UG67 ODZOL |
| Aircraft | A333/H-V/N |
Departure
| Time | N/A |
|---|---|
| Airport | Gaziantep Oğuzeli International Airport (LTAJ) |
Arrival
| Time | 2026-05-04 10:19 |
|---|---|
| Airport | Rize–Artvin Airport (LTFO) |
| Time | Latitude | Longitude | Altitude | Speed | Heading |
|---|---|---|---|---|---|
| 2026-05-04 09:07 | 36.94507 | 37.47816 | 0 ft | 0 kts | 194° |
| 2026-05-04 09:15 | 36.94520 | 37.47820 | 0 ft | 2 kts | 194° |
| 2026-05-04 09:15 | 36.94534 | 37.47828 | 0 ft | 2 kts | 251° |
| 2026-05-04 09:15 | 36.94534 | 37.47834 | 0 ft | 0 kts | 290° |
| 2026-05-04 09:17 | 36.94745 | 37.47171 | 0 ft | 15 kts | 297° |
| 2026-05-04 09:18 | 36.94786 | 37.47056 | 0 ft | 15 kts | 290° |
| 2026-05-04 09:18 | 36.94824 | 37.46926 | 0 ft | 17 kts | 290° |
| 2026-05-04 09:18 | 36.94867 | 37.46777 | 0 ft | 19 kts | 289° |
| 2026-05-04 09:18 | 36.94907 | 37.46610 | 0 ft | 21 kts | 285° |
| 2026-05-04 09:19 | 36.94941 | 37.46429 | 0 ft | 21 kts | 283° |
| 2026-05-04 09:19 | 36.94981 | 37.46246 | 0 ft | 22 kts | 296° |
| 2026-05-04 09:19 | 36.95083 | 37.46160 | 0 ft | 14 kts | 353° |
| 2026-05-04 09:19 | 36.95149 | 37.46177 | 0 ft | 5 kts | 34° |
| 2026-05-04 09:20 | 36.95161 | 37.46202 | 0 ft | 4 kts | 78° |
| 2026-05-04 09:20 | 36.95158 | 37.46229 | 0 ft | 7 kts | 107° |
| 2026-05-04 09:20 | 36.95004 | 37.46925 | 0 ft | 125 kts | 105° |
| 2026-05-04 09:20 | 36.94709 | 37.48257 | 0 ft | 175 kts | 105° |
| 2026-05-04 09:21 | 36.94398 | 37.49728 | 0 ft | 176 kts | 105° |
| 2026-05-04 09:21 | 36.94075 | 37.51228 | 0 ft | 181 kts | 105° |
| 2026-05-04 09:21 | 36.93748 | 37.52744 | 0 ft | 184 kts | 105° |
| 2026-05-04 09:21 | 36.93510 | 37.53848 | 0 ft | 202 kts | 105° |
| 2026-05-04 09:22 | 36.93114 | 37.55679 | 0 ft | 243 kts | 105° |
| 2026-05-04 09:22 | 36.92646 | 37.57885 | 0 ft | 267 kts | 102° |
| 2026-05-04 09:22 | 36.92661 | 37.60126 | 0 ft | 261 kts | 76° |
| 2026-05-04 09:22 | 36.93240 | 37.62321 | 0 ft | 267 kts | 68° |
| 2026-05-04 09:23 | 36.93991 | 37.64430 | 0 ft | 266 kts | 64° |
| 2026-05-04 09:23 | 36.94853 | 37.66521 | 0 ft | 275 kts | 61° |
| 2026-05-04 09:23 | 36.95806 | 37.68612 | 0 ft | 278 kts | 59° |
| 2026-05-04 09:23 | 36.96820 | 37.70698 | 0 ft | 284 kts | 58° |
| 2026-05-04 09:25 | 37.05798 | 37.87275 | 0 ft | 363 kts | 40° |
| 2026-05-04 09:25 | 37.07989 | 37.88863 | 0 ft | 368 kts | 18° |
| 2026-05-04 09:26 | 37.10501 | 37.89535 | 0 ft | 372 kts | 7° |
| 2026-05-04 09:26 | 37.13095 | 37.89870 | 0 ft | 377 kts | 4° |
| 2026-05-04 09:26 | 37.15722 | 37.90060 | 0 ft | 380 kts | 2° |
| 2026-05-04 09:26 | 37.18381 | 37.90164 | 0 ft | 384 kts | 1° |
| 2026-05-04 09:27 | 37.21064 | 37.90215 | 0 ft | 386 kts | 0° |
| 2026-05-04 09:27 | 37.23760 | 37.90251 | 0 ft | 388 kts | 0° |
| 2026-05-04 09:27 | 37.26461 | 37.90286 | 0 ft | 390 kts | 0° |
| 2026-05-04 09:27 | 37.29178 | 37.90325 | 0 ft | 390 kts | 0° |
| 2026-05-04 09:28 | 37.31894 | 37.90371 | 0 ft | 391 kts | 0° |
| 2026-05-04 09:28 | 37.34618 | 37.90424 | 0 ft | 390 kts | 0° |
| 2026-05-04 09:28 | 37.37301 | 37.90794 | 0 ft | 389 kts | 15° |
| 2026-05-04 09:28 | 37.39784 | 37.92181 | 0 ft | 393 kts | 30° |
| 2026-05-04 09:29 | 37.42113 | 37.94028 | 0 ft | 398 kts | 33° |
| 2026-05-04 09:29 | 37.44376 | 37.95983 | 0 ft | 402 kts | 35° |
| 2026-05-04 09:29 | 37.46660 | 37.98045 | 0 ft | 407 kts | 36° |
| 2026-05-04 09:29 | 37.48960 | 38.00182 | 0 ft | 414 kts | 37° |
| 2026-05-04 09:30 | 37.51275 | 38.02375 | 0 ft | 420 kts | 37° |
| 2026-05-04 09:30 | 37.53619 | 38.04623 | 0 ft | 425 kts | 37° |
| 2026-05-04 09:30 | 37.55980 | 38.06906 | 0 ft | 431 kts | 37° |
| 2026-05-04 09:30 | 37.58373 | 38.09234 | 0 ft | 435 kts | 37° |
| 2026-05-04 09:31 | 37.60775 | 38.11581 | 0 ft | 440 kts | 37° |
| 2026-05-04 09:31 | 37.63202 | 38.13961 | 0 ft | 444 kts | 38° |
| 2026-05-04 09:31 | 37.65645 | 38.16364 | 0 ft | 447 kts | 38° |
| 2026-05-04 09:31 | 37.68108 | 38.18791 | 0 ft | 450 kts | 38° |
| 2026-05-04 09:32 | 37.70576 | 38.21228 | 0 ft | 453 kts | 38° |
| 2026-05-04 09:32 | 37.73075 | 38.23701 | 0 ft | 455 kts | 38° |
| 2026-05-04 09:34 | 37.90910 | 38.41438 | 0 ft | 476 kts | 38° |
| 2026-05-04 09:34 | 37.93514 | 38.44040 | 0 ft | 477 kts | 38° |
| 2026-05-04 09:34 | 37.96122 | 38.46648 | 0 ft | 478 kts | 38° |
| 2026-05-04 09:34 | 37.98730 | 38.49260 | 0 ft | 478 kts | 38° |
| 2026-05-04 09:35 | 38.01344 | 38.51880 | 0 ft | 478 kts | 38° |
| 2026-05-04 09:35 | 38.03930 | 38.54475 | 0 ft | 480 kts | 38° |
| 2026-05-04 09:35 | 38.06588 | 38.57144 | 0 ft | 484 kts | 38° |
| 2026-05-04 09:35 | 38.09207 | 38.59778 | 0 ft | 486 kts | 38° |
| 2026-05-04 09:37 | 38.28279 | 38.78007 | 0 ft | 492 kts | 22° |
| 2026-05-04 09:37 | 38.31436 | 38.79537 | 0 ft | 492 kts | 19° |
| 2026-05-04 09:38 | 38.34676 | 38.80957 | 0 ft | 492 kts | 18° |
| 2026-05-04 09:38 | 38.37929 | 38.82321 | 0 ft | 493 kts | 18° |
| 2026-05-04 09:38 | 38.41193 | 38.83655 | 0 ft | 493 kts | 17° |
| 2026-05-04 09:38 | 38.44469 | 38.84977 | 0 ft | 493 kts | 17° |
| 2026-05-04 09:39 | 38.47745 | 38.86290 | 0 ft | 493 kts | 17° |
| 2026-05-04 09:39 | 38.51028 | 38.87601 | 0 ft | 493 kts | 17° |
| 2026-05-04 09:39 | 38.54297 | 38.88905 | 0 ft | 493 kts | 17° |
| 2026-05-04 09:39 | 38.57582 | 38.90216 | 0 ft | 493 kts | 17° |
| 2026-05-04 09:40 | 38.60858 | 38.91523 | 0 ft | 493 kts | 17° |
| 2026-05-04 09:40 | 38.64134 | 38.92831 | 0 ft | 493 kts | 17° |
| 2026-05-04 09:40 | 38.67411 | 38.94140 | 0 ft | 493 kts | 17° |
| 2026-05-04 09:40 | 38.70693 | 38.95453 | 0 ft | 493 kts | 17° |
| 2026-05-04 09:41 | 38.73927 | 38.96748 | 0 ft | 493 kts | 17° |
| 2026-05-04 09:42 | 38.96842 | 39.05954 | 0 ft | 493 kts | 17° |
| 2026-05-04 09:43 | 39.00110 | 39.07272 | 0 ft | 493 kts | 17° |
| 2026-05-04 09:43 | 39.03387 | 39.08595 | 0 ft | 493 kts | 17° |
| 2026-05-04 09:43 | 39.06669 | 39.09920 | 0 ft | 493 kts | 17° |
| 2026-05-04 09:43 | 39.09931 | 39.11240 | 0 ft | 493 kts | 17° |
| 2026-05-04 09:44 | 39.13210 | 39.12568 | 0 ft | 493 kts | 17° |
| 2026-05-04 09:44 | 39.16492 | 39.13897 | 0 ft | 493 kts | 17° |
| 2026-05-04 09:44 | 39.19758 | 39.15222 | 0 ft | 493 kts | 17° |
| 2026-05-04 09:46 | 39.42649 | 39.24543 | 0 ft | 493 kts | 17° |
| 2026-05-04 09:46 | 39.45927 | 39.25882 | 0 ft | 493 kts | 17° |
| 2026-05-04 09:46 | 39.49153 | 39.27203 | 0 ft | 493 kts | 17° |
| 2026-05-04 09:47 | 39.52423 | 39.28543 | 0 ft | 493 kts | 17° |
| 2026-05-04 09:47 | 39.55694 | 39.29883 | 0 ft | 493 kts | 17° |
| 2026-05-04 09:49 | 39.78602 | 39.39309 | 0 ft | 493 kts | 17° |
| 2026-05-04 09:49 | 39.81847 | 39.40650 | 0 ft | 493 kts | 17° |
| 2026-05-04 09:49 | 39.85121 | 39.42004 | 0 ft | 493 kts | 17° |
| 2026-05-04 09:51 | 40.04269 | 39.49954 | 0 ft | 458 kts | 17° |
| 2026-05-04 09:51 | 40.07320 | 39.51225 | 0 ft | 452 kts | 17° |
| 2026-05-04 09:51 | 40.10306 | 39.52471 | 0 ft | 447 kts | 17° |
| 2026-05-04 09:51 | 40.13221 | 39.53688 | 0 ft | 444 kts | 17° |
| 2026-05-04 09:52 | 40.16154 | 39.54913 | 0 ft | 441 kts | 17° |
| 2026-05-04 09:52 | 40.19076 | 39.56136 | 0 ft | 438 kts | 17° |
| 2026-05-04 09:52 | 40.21974 | 39.57349 | 0 ft | 436 kts | 17° |
| 2026-05-04 09:52 | 40.24854 | 39.58555 | 0 ft | 434 kts | 17° |
| 2026-05-04 09:53 | 40.27727 | 39.59760 | 0 ft | 431 kts | 17° |
| 2026-05-04 09:53 | 40.30573 | 39.60954 | 0 ft | 428 kts | 17° |
| 2026-05-04 09:53 | 40.33374 | 39.62131 | 0 ft | 425 kts | 17° |
| 2026-05-04 09:53 | 40.36211 | 39.63324 | 0 ft | 422 kts | 17° |
| 2026-05-04 09:54 | 40.38993 | 39.64496 | 0 ft | 419 kts | 17° |
| 2026-05-04 09:54 | 40.41730 | 39.65650 | 0 ft | 416 kts | 17° |
| 2026-05-04 09:54 | 40.44505 | 39.66821 | 0 ft | 413 kts | 18° |
| 2026-05-04 09:54 | 40.47241 | 39.67930 | 0 ft | 409 kts | 14° |
| 2026-05-04 09:55 | 40.49968 | 39.68777 | 0 ft | 405 kts | 12° |
| 2026-05-04 09:55 | 40.52721 | 39.69502 | 0 ft | 401 kts | 10° |
| 2026-05-04 09:55 | 40.55440 | 39.70159 | 0 ft | 395 kts | 9° |
| 2026-05-04 09:55 | 40.58128 | 39.70775 | 0 ft | 390 kts | 9° |
| 2026-05-04 09:56 | 40.60788 | 39.71365 | 0 ft | 385 kts | 9° |
| 2026-05-04 09:56 | 40.63395 | 39.72070 | 0 ft | 380 kts | 19° |
| 2026-05-04 09:56 | 40.65691 | 39.73724 | 0 ft | 376 kts | 38° |
| 2026-05-04 09:56 | 40.67645 | 39.75988 | 0 ft | 373 kts | 43° |
| 2026-05-04 09:57 | 40.69507 | 39.78369 | 0 ft | 371 kts | 45° |
| 2026-05-04 09:57 | 40.71276 | 39.80734 | 0 ft | 369 kts | 45° |
| 2026-05-04 09:57 | 40.73050 | 39.83157 | 0 ft | 366 kts | 46° |
| 2026-05-04 09:57 | 40.74790 | 39.85558 | 0 ft | 364 kts | 46° |
| 2026-05-04 09:58 | 40.76509 | 39.87942 | 0 ft | 363 kts | 46° |
| 2026-05-04 09:58 | 40.78242 | 39.90352 | 0 ft | 361 kts | 46° |
| 2026-05-04 09:58 | 40.79984 | 39.92779 | 0 ft | 359 kts | 46° |
| 2026-05-04 10:00 | 40.91672 | 40.09111 | 0 ft | 346 kts | 46° |
| 2026-05-04 10:00 | 40.93321 | 40.11420 | 0 ft | 345 kts | 46° |
| 2026-05-04 10:02 | 41.03158 | 40.28132 | 0 ft | 294 kts | 55° |
| 2026-05-04 10:04 | 41.10274 | 40.41962 | 0 ft | 240 kts | 55° |
| 2026-05-04 10:04 | 41.11209 | 40.43783 | 0 ft | 238 kts | 56° |
| 2026-05-04 10:04 | 41.12138 | 40.45595 | 0 ft | 237 kts | 55° |
| 2026-05-04 10:04 | 41.13062 | 40.47396 | 0 ft | 236 kts | 55° |
| 2026-05-04 10:05 | 41.13985 | 40.49196 | 0 ft | 235 kts | 56° |
| 2026-05-04 10:05 | 41.14861 | 40.50905 | 0 ft | 235 kts | 56° |
| 2026-05-04 10:05 | 41.15778 | 40.52693 | 0 ft | 234 kts | 55° |
| 2026-05-04 10:05 | 41.16693 | 40.54479 | 0 ft | 234 kts | 55° |
| 2026-05-04 10:06 | 41.17605 | 40.56258 | 0 ft | 233 kts | 55° |
| 2026-05-04 10:06 | 41.18517 | 40.58038 | 0 ft | 232 kts | 55° |
| 2026-05-04 10:06 | 41.19426 | 40.59814 | 0 ft | 232 kts | 55° |
| 2026-05-04 10:08 | 41.24824 | 40.70362 | 0 ft | 229 kts | 55° |
| 2026-05-04 10:08 | 41.25709 | 40.72093 | 0 ft | 229 kts | 56° |
| 2026-05-04 10:08 | 41.26599 | 40.73835 | 0 ft | 228 kts | 56° |
| 2026-05-04 10:08 | 41.27492 | 40.75582 | 0 ft | 228 kts | 55° |
| 2026-05-04 10:09 | 41.28383 | 40.77326 | 0 ft | 227 kts | 55° |
| 2026-05-04 10:09 | 41.29270 | 40.79063 | 0 ft | 226 kts | 55° |
| 2026-05-04 10:09 | 41.30139 | 40.80765 | 0 ft | 219 kts | 56° |
| 2026-05-04 10:09 | 41.30704 | 40.81871 | 0 ft | 216 kts | 56° |
| 2026-05-04 10:10 | 41.31545 | 40.83520 | 0 ft | 213 kts | 56° |
| 2026-05-04 10:10 | 41.32359 | 40.85116 | 0 ft | 203 kts | 55° |
| 2026-05-04 10:10 | 41.33141 | 40.86650 | 0 ft | 199 kts | 56° |
| 2026-05-04 10:10 | 41.33917 | 40.88174 | 0 ft | 197 kts | 56° |
| 2026-05-04 10:11 | 41.34678 | 40.89669 | 0 ft | 193 kts | 56° |
| 2026-05-04 10:11 | 41.35424 | 40.91136 | 0 ft | 190 kts | 56° |
| 2026-05-04 10:11 | 41.36152 | 40.92567 | 0 ft | 188 kts | 56° |
| 2026-05-04 10:11 | 41.36891 | 40.94019 | 0 ft | 189 kts | 56° |
| 2026-05-04 10:12 | 41.37617 | 40.95446 | 0 ft | 184 kts | 56° |
| 2026-05-04 10:12 | 41.38296 | 40.96876 | 0 ft | 182 kts | 66° |
| 2026-05-04 10:12 | 41.38358 | 40.98513 | 0 ft | 180 kts | 111° |
| 2026-05-04 10:12 | 41.37558 | 40.99741 | 0 ft | 178 kts | 155° |
| 2026-05-04 10:13 | 41.36362 | 40.99891 | 0 ft | 176 kts | 199° |
| 2026-05-04 10:13 | 41.35248 | 40.99234 | 0 ft | 176 kts | 197° |
| 2026-05-04 10:13 | 41.34033 | 40.99056 | 0 ft | 175 kts | 185° |
| 2026-05-04 10:13 | 41.32820 | 40.98958 | 0 ft | 174 kts | 185° |
| 2026-05-04 10:14 | 41.31617 | 40.98841 | 0 ft | 172 kts | 185° |
| 2026-05-04 10:14 | 41.30440 | 40.98716 | 0 ft | 171 kts | 185° |
| 2026-05-04 10:16 | 41.23045 | 40.97270 | 0 ft | 152 kts | 202° |
| 2026-05-04 10:16 | 41.22075 | 40.96723 | 0 ft | 150 kts | 206° |
| 2026-05-04 10:16 | 41.21174 | 40.96035 | 0 ft | 149 kts | 216° |
| 2026-05-04 10:16 | 41.20433 | 40.95071 | 0 ft | 151 kts | 234° |
| 2026-05-04 10:17 | 41.20044 | 40.93801 | 0 ft | 149 kts | 258° |
| 2026-05-04 10:17 | 41.19887 | 40.92470 | 0 ft | 136 kts | 264° |
| 2026-05-04 10:19 | 41.18019 | 40.85004 | 0 ft | 48 kts | 252° |
| 2026-05-04 10:19 | 41.17927 | 40.84662 | 0 ft | 19 kts | 251° |
| 2026-05-04 10:19 | 41.17892 | 40.84525 | 0 ft | 18 kts | 251° |
| 2026-05-04 10:19 | 41.17853 | 40.84431 | 0 ft | 5 kts | 216° |
| 2026-05-04 10:20 | 41.17816 | 40.84423 | 0 ft | 6 kts | 171° |
| 2026-05-04 10:20 | 41.17769 | 40.84439 | 0 ft | 8 kts | 163° |
| 2026-05-04 10:20 | 41.17701 | 40.84467 | 0 ft | 12 kts | 163° |
| 2026-05-04 10:20 | 41.17612 | 40.84503 | 0 ft | 13 kts | 162° |
| 2026-05-04 10:21 | 41.17559 | 40.84528 | 0 ft | 0 kts | 160° |